sensor_id;sensor_type;location;lat;lon;timestamp;pressure;altitude;pressure_sealevel;temperature;humidity
44138;BME280;29800;55.942;37.314;2023-12-14T00:01:28;100005.72;;;-9.94;64.03
44138;BME280;29800;55.942;37.314;2023-12-14T00:03:55;100004.63;;;-9.92;64.19
44138;BME280;29800;55.942;37.314;2023-12-14T00:06:21;100022.00;;;-9.88;64.06
44138;BME280;29800;55.942;37.314;2023-12-14T00:08:47;100022.06;;;-9.76;64.10
44138;BME280;29800;55.942;37.314;2023-12-14T00:11:13;100015.13;;;-9.66;63.98
44138;BME280;29800;55.942;37.314;2023-12-14T00:13:40;100011.66;;;-9.67;63.36
44138;BME280;29800;55.942;37.314;2023-12-14T00:16:06;100021.91;;;-9.62;63.11
44138;BME280;29800;55.942;37.314;2023-12-14T00:18:33;100011.59;;;-9.54;63.23
44138;BME280;29800;55.942;37.314;2023-12-14T00:20:59;100013.03;;;-9.50;62.30
44138;BME280;29800;55.942;37.314;2023-12-14T00:23:25;100019.06;;;-9.48;62.53
44138;BME280;29800;55.942;37.314;2023-12-14T00:25:51;100017.59;;;-9.52;62.48
44138;BME280;29800;55.942;37.314;2023-12-14T00:28:17;100005.56;;;-9.45;62.17
44138;BME280;29800;55.942;37.314;2023-12-14T00:30:44;100016.13;;;-9.56;62.42
44138;BME280;29800;55.942;37.314;2023-12-14T00:33:12;100007.72;;;-9.50;63.34
44138;BME280;29800;55.942;37.314;2023-12-14T00:35:38;100011.47;;;-9.52;62.28
44138;BME280;29800;55.942;37.314;2023-12-14T00:38:04;100016.78;;;-9.52;62.64
44138;BME280;29800;55.942;37.314;2023-12-14T00:40:30;100011.81;;;-9.57;62.58
44138;BME280;29800;55.942;37.314;2023-12-14T00:42:56;100001.47;;;-9.49;63.17
44138;BME280;29800;55.942;37.314;2023-12-14T00:45:23;100012.09;;;-9.49;62.41
44138;BME280;29800;55.942;37.314;2023-12-14T00:47:49;100005.53;;;-9.56;62.94
44138;BME280;29800;55.942;37.314;2023-12-14T00:50:15;100002.19;;;-9.47;62.37
44138;BME280;29800;55.942;37.314;2023-12-14T00:52:41;100008.22;;;-9.45;63.03
44138;BME280;29800;55.942;37.314;2023-12-14T00:55:07;100008.22;;;-9.45;62.17
44138;BME280;29800;55.942;37.314;2023-12-14T00:57:34;100004.25;;;-9.50;62.62
44138;BME280;29800;55.942;37.314;2023-12-14T01:00:00;99993.97;;;-9.55;62.09
44138;BME280;29800;55.942;37.314;2023-12-14T01:02:27;100002.38;;;-9.61;63.46
44138;BME280;29800;55.942;37.314;2023-12-14T01:04:53;100001.66;;;-9.63;63.69
44138;BME280;29800;55.942;37.314;2023-12-14T01:07:19;100009.09;;;-9.68;63.40
44138;BME280;29800;55.942;37.314;2023-12-14T01:09:45;100018.06;;;-9.58;63.17
44138;BME280;29800;55.942;37.314;2023-12-14T01:12:11;100005.97;;;-9.73;63.75
44138;BME280;29800;55.942;37.314;2023-12-14T01:14:37;100001.28;;;-9.70;63.40
44138;BME280;29800;55.942;37.314;2023-12-14T01:17:03;99994.38;;;-9.72;63.81
44138;BME280;29800;55.942;37.314;2023-12-14T01:19:30;100000.44;;;-9.70;64.17
44138;BME280;29800;55.942;37.314;2023-12-14T01:21:56;100006.47;;;-9.68;63.57
44138;BME280;29800;55.942;37.314;2023-12-14T01:24:22;100007.41;;;-9.69;64.09
44138;BME280;29800;55.942;37.314;2023-12-14T01:26:48;99998.72;;;-9.71;64.29
44138;BME280;29800;55.942;37.314;2023-12-14T01:29:14;99998.72;;;-9.71;63.59
44138;BME280;29800;55.942;37.314;2023-12-14T01:31:40;99999.47;;;-9.69;63.18
44138;BME280;29800;55.942;37.314;2023-12-14T01:34:06;99998.00;;;-9.73;63.70
44138;BME280;29800;55.942;37.314;2023-12-14T01:36:33;99992.47;;;-9.70;63.73
44138;BME280;29800;55.942;37.314;2023-12-14T01:38:59;100012.53;;;-9.55;63.37
44138;BME280;29800;55.942;37.314;2023-12-14T01:41:25;100000.53;;;-9.72;63.36
44138;BME280;29800;55.942;37.314;2023-12-14T01:43:51;99993.66;;;-9.74;64.06
44138;BME280;29800;55.942;37.314;2023-12-14T01:46:17;100005.84;;;-9.72;63.96
44138;BME280;29800;55.942;37.314;2023-12-14T01:48:43;100002.59;;;-9.64;63.42
44138;BME280;29800;55.942;37.314;2023-12-14T01:51:09;100010.66;;;-9.66;63.54
44138;BME280;29800;55.942;37.314;2023-12-14T01:53:35;100018.63;;;-9.66;63.97
44138;BME280;29800;55.942;37.314;2023-12-14T01:56:02;100010.34;;;-9.61;64.22
44138;BME280;29800;55.942;37.314;2023-12-14T01:58:28;100006.84;;;-9.62;63.96
44138;BME280;29800;55.942;37.314;2023-12-14T02:01:20;100000.88;;;-9.52;64.07
44138;BME280;29800;55.942;37.314;2023-12-14T02:03:51;99994.94;;;-9.56;63.97
44138;BME280;29800;55.942;37.314;2023-12-14T02:06:18;99996.63;;;-9.55;64.34
44138;BME280;29800;55.942;37.314;2023-12-14T02:08:44;99990.38;;;-9.54;64.36
44138;BME280;29800;55.942;37.314;2023-12-14T02:11:11;99995.94;;;-9.46;64.18
44138;BME280;29800;55.942;37.314;2023-12-14T02:13:37;99996.41;;;-9.52;63.89
44138;BME280;29800;55.942;37.314;2023-12-14T02:16:04;100000.22;;;-9.56;63.39
44138;BME280;29800;55.942;37.314;2023-12-14T02:18:30;99990.50;;;-9.55;63.17
44138;BME280;29800;55.942;37.314;2023-12-14T02:21:16;99999.06;;;-9.52;63.77
44138;BME280;29800;55.942;37.314;2023-12-14T02:23:44;99999.53;;;-9.47;63.62
44138;BME280;29800;55.942;37.314;2023-12-14T02:26:14;99997.63;;;-9.45;63.76
44138;BME280;29800;55.942;37.314;2023-12-14T02:28:40;99997.78;;;-9.35;63.73
44138;BME280;29800;55.942;37.314;2023-12-14T02:31:06;99995.88;;;-9.33;64.01
44138;BME280;29800;55.942;37.314;2023-12-14T02:33:33;99999.75;;;-9.26;62.98
44138;BME280;29800;55.942;37.314;2023-12-14T02:35:59;100001.81;;;-9.18;62.97
44138;BME280;29800;55.942;37.314;2023-12-14T02:38:26;99994.09;;;-9.21;63.27
44138;BME280;29800;55.942;37.314;2023-12-14T02:40:52;100002.53;;;-9.16;63.34
44138;BME280;29800;55.942;37.314;2023-12-14T02:43:19;99993.34;;;-9.23;62.78
44138;BME280;29800;55.942;37.314;2023-12-14T02:45:45;99996.72;;;-9.32;63.10
44138;BME280;29800;55.942;37.314;2023-12-14T02:48:12;99998.00;;;-9.38;62.74
44138;BME280;29800;55.942;37.314;2023-12-14T02:50:38;99995.00;;;-9.33;63.68
44138;BME280;29800;55.942;37.314;2023-12-14T02:53:04;99997.78;;;-9.35;63.21
44138;BME280;29800;55.942;37.314;2023-12-14T02:55:30;99999.34;;;-9.32;63.52
44138;BME280;29800;55.942;37.314;2023-12-14T02:57:56;100005.84;;;-9.36;63.67
44138;BME280;29800;55.942;37.314;2023-12-14T03:00:22;99997.88;;;-9.36;63.35
44138;BME280;29800;55.942;37.314;2023-12-14T03:02:49;100006.34;;;-9.31;63.79
44138;BME280;29800;55.942;37.314;2023-12-14T03:05:15;100005.28;;;-9.29;63.72
44138;BME280;29800;55.942;37.314;2023-12-14T03:07:41;100000.53;;;-9.36;64.07
44138;BME280;29800;55.942;37.314;2023-12-14T03:10:08;100003.19;;;-9.36;63.96
44138;BME280;29800;55.942;37.314;2023-12-14T03:12:34;99996.34;;;-9.39;64.07
44138;BME280;29800;55.942;37.314;2023-12-14T03:15:00;100004.53;;;-9.31;63.81
44138;BME280;29800;55.942;37.314;2023-12-14T03:17:26;100004.00;;;-9.47;63.69
44138;BME280;29800;55.942;37.314;2023-12-14T03:19:52;100002.91;;;-9.45;63.83
44138;BME280;29800;55.942;37.314;2023-12-14T03:22:19;100003.78;;;-9.44;64.53
44138;BME280;29800;55.942;37.314;2023-12-14T03:24:45;100008.50;;;-9.36;63.96
44138;BME280;29800;55.942;37.314;2023-12-14T03:27:11;100008.03;;;-9.30;63.35
44138;BME280;29800;55.942;37.314;2023-12-14T03:29:37;100007.69;;;-9.26;63.63
44138;BME280;29800;55.942;37.314;2023-12-14T03:32:04;100004.94;;;-9.24;63.36
44138;BME280;29800;55.942;37.314;2023-12-14T03:34:30;100003.22;;;-9.25;63.03
44138;BME280;29800;55.942;37.314;2023-12-14T03:36:56;99999.34;;;-9.32;63.30
44138;BME280;29800;55.942;37.314;2023-12-14T03:39:22;100000.53;;;-9.36;62.90
44138;BME280;29800;55.942;37.314;2023-12-14T03:41:48;99999.25;;;-9.31;63.15
44138;BME280;29800;55.942;37.314;2023-12-14T03:44:14;99999.81;;;-9.38;63.07
44138;BME280;29800;55.942;37.314;2023-12-14T03:46:41;100003.94;;;-9.34;63.96
44138;BME280;29800;55.942;37.314;2023-12-14T03:49:07;99988.88;;;-9.34;63.79
44138;BME280;29800;55.942;37.314;2023-12-14T03:51:33;99991.09;;;-9.16;63.71
44138;BME280;29800;55.942;37.314;2023-12-14T03:53:59;99990.56;;;-9.33;63.73
44138;BME280;29800;55.942;37.314;2023-12-14T03:56:25;99994.97;;;-9.45;64.17
44138;BME280;29800;55.942;37.314;2023-12-14T03:58:51;99995.47;;;-9.51;64.40
44138;BME280;29800;55.942;37.314;2023-12-14T04:01:19;99995.34;;;-9.49;64.96
44138;BME280;29800;55.942;37.314;2023-12-14T04:03:45;99996.63;;;-9.55;64.74
44138;BME280;29800;55.942;37.314;2023-12-14T04:06:12;99997.00;;;-9.48;65.09
44138;BME280;29800;55.942;37.314;2023-12-14T04:08:40;99999.09;;;-9.40;64.78
44138;BME280;29800;55.942;37.314;2023-12-14T04:11:06;99995.22;;;-9.36;64.63
44138;BME280;29800;55.942;37.314;2023-12-14T04:13:33;100000.34;;;-9.22;63.80
44138;BME280;29800;55.942;37.314;2023-12-14T04:15:59;99996.72;;;-9.32;64.20
44138;BME280;29800;55.942;37.314;2023-12-14T04:18:26;99996.97;;;-9.24;64.08
44138;BME280;29800;55.942;37.314;2023-12-14T04:20:52;99983.59;;;-9.22;63.98
44138;BME280;29800;55.942;37.314;2023-12-14T04:23:19;99993.75;;;-9.16;63.56
44138;BME280;29800;55.942;37.314;2023-12-14T04:25:45;99982.75;;;-9.12;62.91
44138;BME280;29800;55.942;37.314;2023-12-14T04:28:11;99986.63;;;-9.16;63.06
44138;BME280;29800;55.942;37.314;2023-12-14T04:30:37;99985.25;;;-9.21;63.01
44138;BME280;29800;55.942;37.314;2023-12-14T04:33:03;99986.81;;;-9.30;63.46
44138;BME280;29800;55.942;37.314;2023-12-14T04:35:29;99986.47;;;-9.26;62.53
44138;BME280;29800;55.942;37.314;2023-12-14T04:37:57;99986.72;;;-9.29;63.66
44138;BME280;29800;55.942;37.314;2023-12-14T04:40:23;99992.38;;;-9.22;63.53
44138;BME280;29800;55.942;37.314;2023-12-14T04:42:49;99993.63;;;-9.15;62.85
44138;BME280;29800;55.942;37.314;2023-12-14T04:45:15;99992.19;;;-9.08;63.40
44138;BME280;29800;55.942;37.314;2023-12-14T04:47:42;99985.19;;;-8.97;62.76
44138;BME280;29800;55.942;37.314;2023-12-14T04:50:09;100000.91;;;-8.83;63.29
44138;BME280;29800;55.942;37.314;2023-12-14T04:52:35;99986.91;;;-8.74;62.83
44138;BME280;29800;55.942;37.314;2023-12-14T04:55:01;99991.97;;;-8.71;62.80
44138;BME280;29800;55.942;37.314;2023-12-14T04:57:29;100000.66;;;-8.69;62.62
44138;BME280;29800;55.942;37.314;2023-12-14T04:59:55;99987.88;;;-8.63;62.73
44138;BME280;29800;55.942;37.314;2023-12-14T05:02:22;99992.59;;;-8.56;62.32
44138;BME280;29800;55.942;37.314;2023-12-14T05:04:48;99986.16;;;-8.42;62.82
44138;BME280;29800;55.942;37.314;2023-12-14T05:07:14;99994.44;;;-8.24;62.00
44138;BME280;29800;55.942;37.314;2023-12-14T05:09:41;99990.19;;;-8.15;62.00
44138;BME280;29800;55.942;37.314;2023-12-14T05:12:07;99989.59;;;-8.07;61.63
44138;BME280;29800;55.942;37.314;2023-12-14T05:14:33;99995.72;;;-7.96;61.87
44138;BME280;29800;55.942;37.314;2023-12-14T05:16:59;99994.59;;;-7.82;61.00
44138;BME280;29800;55.942;37.314;2023-12-14T05:19:25;99995.88;;;-7.65;61.04
44138;BME280;29800;55.942;37.314;2023-12-14T05:21:51;99997.78;;;-7.55;60.67
44138;BME280;29800;55.942;37.314;2023-12-14T05:24:20;99999.66;;;-7.46;60.46
44138;BME280;29800;55.942;37.314;2023-12-14T05:26:46;100004.47;;;-7.40;60.18
44138;BME280;29800;55.942;37.314;2023-12-14T05:29:12;100000.59;;;-7.36;59.68
44138;BME280;29800;55.942;37.314;2023-12-14T05:31:38;100001.63;;;-7.27;59.53
44138;BME280;29800;55.942;37.314;2023-12-14T05:34:04;100007.00;;;-7.17;59.40
44138;BME280;29800;55.942;37.314;2023-12-14T05:36:30;100001.44;;;-7.14;59.21
44138;BME280;29800;55.942;37.314;2023-12-14T05:38:56;100008.03;;;-7.09;59.31
44138;BME280;29800;55.942;37.314;2023-12-14T05:41:23;100006.94;;;-7.06;58.97
44138;BME280;29800;55.942;37.314;2023-12-14T05:43:49;100006.56;;;-7.02;58.48
44138;BME280;29800;55.942;37.314;2023-12-14T05:46:22;100000.56;;;-6.94;58.37
44138;BME280;29800;55.942;37.314;2023-12-14T05:48:50;100001.69;;;-6.96;58.56
44138;BME280;29800;55.942;37.314;2023-12-14T05:51:29;99999.22;;;-6.88;58.49
44138;BME280;29800;55.942;37.314;2023-12-14T05:53:56;100000.44;;;-6.92;58.17
44138;BME280;29800;55.942;37.314;2023-12-14T05:56:22;99999.16;;;-6.98;57.71
44138;BME280;29800;55.942;37.314;2023-12-14T05:58:48;100008.63;;;-7.05;58.04
44138;BME280;29800;55.942;37.314;2023-12-14T06:01:17;100003.28;;;-7.05;58.13
44138;BME280;29800;55.942;37.314;2023-12-14T06:03:44;100000.94;;;-7.08;57.65
44138;BME280;29800;55.942;37.314;2023-12-14T06:06:11;99995.44;;;-7.07;57.66
44138;BME280;29800;55.942;37.314;2023-12-14T06:08:39;100000.25;;;-7.00;57.64
44138;BME280;29800;55.942;37.314;2023-12-14T06:11:05;99992.84;;;-6.97;57.51
44138;BME280;29800;55.942;37.314;2023-12-14T06:13:32;99999.75;;;-6.94;57.40
44138;BME280;29800;55.942;37.314;2023-12-14T06:15:59;99996.75;;;-7.01;56.96
44138;BME280;29800;55.942;37.314;2023-12-14T06:18:25;100008.81;;;-6.97;57.67
44138;BME280;29800;55.942;37.314;2023-12-14T06:20:52;100003.53;;;-6.87;57.53
44138;BME280;29800;55.942;37.314;2023-12-14T06:23:18;99994.22;;;-6.81;57.23
44138;BME280;29800;55.942;37.314;2023-12-14T06:25:45;100006.25;;;-6.77;56.78
44138;BME280;29800;55.942;37.314;2023-12-14T06:28:11;100002.06;;;-6.80;56.86
44138;BME280;29800;55.942;37.314;2023-12-14T06:30:38;100000.81;;;-6.76;56.91
44138;BME280;29800;55.942;37.314;2023-12-14T06:33:04;99998.47;;;-6.69;57.17
44138;BME280;29800;55.942;37.314;2023-12-14T06:35:30;100000.47;;;-6.61;56.67
44138;BME280;29800;55.942;37.314;2023-12-14T06:37:56;100004.69;;;-6.59;56.39
44138;BME280;29800;55.942;37.314;2023-12-14T06:40:22;99996.84;;;-6.60;56.30
44138;BME280;29800;55.942;37.314;2023-12-14T06:42:48;100000.47;;;-6.61;56.37
44138;BME280;29800;55.942;37.314;2023-12-14T06:45:16;100008.47;;;-6.61;56.01
44138;BME280;29800;55.942;37.314;2023-12-14T06:47:42;100002.00;;;-6.69;56.04
44138;BME280;29800;55.942;37.314;2023-12-14T06:50:09;100011.34;;;-6.74;56.22
44138;BME280;29800;55.942;37.314;2023-12-14T06:52:36;100009.66;;;-6.75;55.94
44138;BME280;29800;55.942;37.314;2023-12-14T06:55:02;100003.59;;;-6.77;56.40
44138;BME280;29800;55.942;37.314;2023-12-14T06:57:30;100013.28;;;-6.76;56.07
44138;BME280;29800;55.942;37.314;2023-12-14T06:59:56;100011.16;;;-6.82;56.23
44138;BME280;29800;55.942;37.314;2023-12-14T07:02:22;100010.88;;;-6.79;56.53
44138;BME280;29800;55.942;37.314;2023-12-14T07:04:48;100016.41;;;-6.71;56.36
44138;BME280;29800;55.942;37.314;2023-12-14T07:07:15;100024.00;;;-6.67;55.85
44138;BME280;29800;55.942;37.314;2023-12-14T07:09:41;100004.22;;;-6.64;56.03
44138;BME280;29800;55.942;37.314;2023-12-14T07:12:09;100006.63;;;-6.61;56.02
44138;BME280;29800;55.942;37.314;2023-12-14T07:14:37;100012.56;;;-6.57;55.98
44138;BME280;29800;55.942;37.314;2023-12-14T07:17:03;100020.13;;;-6.53;55.68
44138;BME280;29800;55.942;37.314;2023-12-14T07:19:31;100006.88;;;-6.64;55.84
44138;BME280;29800;55.942;37.314;2023-12-14T07:21:57;100007.75;;;-6.63;55.51
44138;BME280;29800;55.942;37.314;2023-12-14T07:24:23;100004.03;;;-6.72;56.01
44138;BME280;29800;55.942;37.314;2023-12-14T07:26:49;100016.09;;;-6.78;55.93
44138;BME280;29800;55.942;37.314;2023-12-14T07:29:16;100017.19;;;-6.80;56.19
44138;BME280;29800;55.942;37.314;2023-12-14T07:31:42;100018.44;;;-6.85;55.89
44138;BME280;29800;55.942;37.314;2023-12-14T07:34:08;100022.47;;;-6.90;56.45
44138;BME280;29800;55.942;37.314;2023-12-14T07:36:35;100029.06;;;-6.85;56.58
44138;BME280;29800;55.942;37.314;2023-12-14T07:39:02;100041.88;;;-6.78;56.46
44138;BME280;29800;55.942;37.314;2023-12-14T07:41:31;100030.97;;;-6.75;55.88
44138;BME280;29800;55.942;37.314;2023-12-14T07:43:58;100031.22;;;-6.78;56.25
44138;BME280;29800;55.942;37.314;2023-12-14T07:46:24;100043.28;;;-6.74;56.57
44138;BME280;29800;55.942;37.314;2023-12-14T07:48:50;100037.19;;;-6.65;56.32
44138;BME280;29800;55.942;37.314;2023-12-14T07:51:16;100044.66;;;-6.59;55.99
44138;BME280;29800;55.942;37.314;2023-12-14T07:53:42;100050.41;;;-6.54;56.14
44138;BME280;29800;55.942;37.314;2023-12-14T07:56:09;100042.94;;;-6.60;56.03
44138;BME280;29800;55.942;37.314;2023-12-14T07:58:35;100040.53;;;-6.63;56.23
44138;BME280;29800;55.942;37.314;2023-12-14T08:01:01;100035.41;;;-6.55;56.25
44138;BME280;29800;55.942;37.314;2023-12-14T08:03:27;100033.44;;;-6.53;56.11
44138;BME280;29800;55.942;37.314;2023-12-14T08:05:54;100036.28;;;-6.44;55.85
44138;BME280;29800;55.942;37.314;2023-12-14T08:08:20;100046.81;;;-6.43;55.65
44138;BME280;29800;55.942;37.314;2023-12-14T08:10:46;100050.28;;;-6.52;55.84
44138;BME280;29800;55.942;37.314;2023-12-14T08:13:12;100047.94;;;-6.45;56.75
44138;BME280;29800;55.942;37.314;2023-12-14T08:15:38;100061.16;;;-6.34;56.53
44138;BME280;29800;55.942;37.314;2023-12-14T08:18:05;100059.50;;;-6.25;55.79
44138;BME280;29800;55.942;37.314;2023-12-14T08:20:31;100050.94;;;-6.29;55.74
44138;BME280;29800;55.942;37.314;2023-12-14T08:22:57;100056.00;;;-6.26;55.44
44138;BME280;29800;55.942;37.314;2023-12-14T08:25:24;100053.88;;;-6.32;55.75
44138;BME280;29800;55.942;37.314;2023-12-14T08:27:51;100057.25;;;-6.30;55.81
44138;BME280;29800;55.942;37.314;2023-12-14T08:30:17;100047.28;;;-6.28;55.59
44138;BME280;29800;55.942;37.314;2023-12-14T08:32:44;100048.72;;;-6.24;55.50
44138;BME280;29800;55.942;37.314;2023-12-14T08:35:10;100044.66;;;-6.18;55.33
44138;BME280;29800;55.942;37.314;2023-12-14T08:37:37;100048.06;;;-6.16;54.98
44138;BME280;29800;55.942;37.314;2023-12-14T08:40:05;100052.78;;;-6.20;55.28
44138;BME280;29800;55.942;37.314;2023-12-14T08:42:32;100055.88;;;-6.24;55.56
44138;BME280;29800;55.942;37.314;2023-12-14T08:44:58;100050.84;;;-6.18;55.62
44138;BME280;29800;55.942;37.314;2023-12-14T08:47:25;100052.53;;;-6.17;55.18
44138;BME280;29800;55.942;37.314;2023-12-14T08:49:51;100052.25;;;-6.14;55.24
44138;BME280;29800;55.942;37.314;2023-12-14T08:52:18;100054.34;;;-6.17;55.05
44138;BME280;29800;55.942;37.314;2023-12-14T08:54:45;100057.94;;;-6.28;55.34
44138;BME280;29800;55.942;37.314;2023-12-14T08:57:12;100055.28;;;-6.28;55.75
44138;BME280;29800;55.942;37.314;2023-12-14T08:59:41;100059.94;;;-6.20;55.95
44138;BME280;29800;55.942;37.314;2023-12-14T09:02:09;100050.03;;;-6.08;55.91
44138;BME280;29800;55.942;37.314;2023-12-14T09:04:36;100033.50;;;-6.02;55.48
44138;BME280;29800;55.942;37.314;2023-12-14T09:07:02;100036.31;;;-6.04;55.31
44138;BME280;29800;55.942;37.314;2023-12-14T09:09:30;100030.66;;;-6.11;55.15
44138;BME280;29800;55.942;37.314;2023-12-14T09:12:00;100025.91;;;-6.07;55.26
44138;BME280;29800;55.942;37.314;2023-12-14T09:14:28;100027.03;;;-6.10;55.32
44138;BME280;29800;55.942;37.314;2023-12-14T09:16:58;100028.16;;;-6.02;55.57
44138;BME280;29800;55.942;37.314;2023-12-14T09:19:25;100021.72;;;-6.10;55.35
44138;BME280;29800;55.942;37.314;2023-12-14T09:21:51;100023.34;;;-6.18;56.38
44138;BME280;29800;55.942;37.314;2023-12-14T09:24:18;100014.66;;;-6.20;56.34
44138;BME280;29800;55.942;37.314;2023-12-14T09:26:45;100025.44;;;-6.22;56.14
44138;BME280;29800;55.942;37.314;2023-12-14T09:29:11;100025.56;;;-6.23;56.21
44138;BME280;29800;55.942;37.314;2023-12-14T09:31:41;100018.16;;;-6.20;56.07
44138;BME280;29800;55.942;37.314;2023-12-14T09:34:10;100011.16;;;-6.21;55.83
44138;BME280;29800;55.942;37.314;2023-12-14T09:36:37;100032.78;;;-6.14;55.83
44138;BME280;29800;55.942;37.314;2023-12-14T09:39:03;100026.16;;;-6.10;55.84
44138;BME280;29800;55.942;37.314;2023-12-14T09:41:31;100032.09;;;-6.06;56.02
44138;BME280;29800;55.942;37.314;2023-12-14T09:43:59;100036.72;;;-5.99;55.67
44138;BME280;29800;55.942;37.314;2023-12-14T09:46:28;100039.94;;;-5.95;55.29
44138;BME280;29800;55.942;37.314;2023-12-14T09:48:57;100052.03;;;-5.91;55.17
44138;BME280;29800;55.942;37.314;2023-12-14T09:51:27;100060.72;;;-5.99;55.12
44138;BME280;29800;55.942;37.314;2023-12-14T09:53:54;100064.47;;;-6.11;55.36
44138;BME280;29800;55.942;37.314;2023-12-14T09:56:25;100064.09;;;-6.06;55.71
44138;BME280;29800;55.942;37.314;2023-12-14T09:58:53;100063.19;;;-6.17;56.12
44138;BME280;29800;55.942;37.314;2023-12-14T10:01:26;100065.53;;;-6.23;55.97
44138;BME280;29800;55.942;37.314;2023-12-14T10:04:13;100063.75;;;-6.23;56.06
44138;BME280;29800;55.942;37.314;2023-12-14T10:06:43;100060.00;;;-6.41;56.29
44138;BME280;29800;55.942;37.314;2023-12-14T10:09:11;100054.94;;;-6.44;56.80
44138;BME280;29800;55.942;37.314;2023-12-14T10:11:45;100061.56;;;-6.39;56.78
44138;BME280;29800;55.942;37.314;2023-12-14T10:14:24;100058.94;;;-6.29;56.65
44138;BME280;29800;55.942;37.314;2023-12-14T10:16:52;100058.69;;;-6.26;56.38
44138;BME280;29800;55.942;37.314;2023-12-14T10:19:19;100051.44;;;-6.14;56.19
44138;BME280;29800;55.942;37.314;2023-12-14T10:21:49;100057.31;;;-6.11;55.49
44138;BME280;29800;55.942;37.314;2023-12-14T10:24:17;100041.06;;;-6.07;56.14
44138;BME280;29800;55.942;37.314;2023-12-14T10:26:45;100046.53;;;-6.09;56.04
44138;BME280;29800;55.942;37.314;2023-12-14T10:29:13;100045.53;;;-6.18;55.57
44138;BME280;29800;55.942;37.314;2023-12-14T10:31:43;100044.75;;;-6.30;56.44
44138;BME280;29800;55.942;37.314;2023-12-14T10:34:10;100034.22;;;-6.41;56.44
44138;BME280;29800;55.942;37.314;2023-12-14T10:36:42;100033.53;;;-6.33;56.15
44138;BME280;29800;55.942;37.314;2023-12-14T10:39:14;100042.25;;;-6.31;55.88
44138;BME280;29800;55.942;37.314;2023-12-14T10:41:51;100055.84;;;-6.34;56.06
44138;BME280;29800;55.942;37.314;2023-12-14T10:44:25;100036.47;;;-6.36;55.82
44138;BME280;29800;55.942;37.314;2023-12-14T10:46:57;100031.16;;;-6.26;55.68
44138;BME280;29800;55.942;37.314;2023-12-14T11:02:11;100005.59;;;-5.98;55.69
44138;BME280;29800;55.942;37.314;2023-12-14T11:04:57;100010.09;;;-5.69;54.85
44138;BME280;29800;55.942;37.314;2023-12-14T11:07:55;99998.59;;;-5.60;54.59
44138;BME280;29800;55.942;37.314;2023-12-14T11:13:11;99988.91;;;-5.71;53.43
44138;BME280;29800;55.942;37.314;2023-12-14T11:15:50;99987.50;;;-5.75;53.23
44138;BME280;29800;55.942;37.314;2023-12-14T11:18:22;99990.84;;;-5.93;53.60
44138;BME280;29800;55.942;37.314;2023-12-14T11:20:56;99985.66;;;-5.94;53.49
44138;BME280;29800;55.942;37.314;2023-12-14T11:23:32;99982.44;;;-5.98;53.85
44138;BME280;29800;55.942;37.314;2023-12-14T11:26:06;99985.78;;;-5.96;53.81
44138;BME280;29800;55.942;37.314;2023-12-14T11:28:38;99983.28;;;-5.97;53.80
44138;BME280;29800;55.942;37.314;2023-12-14T11:31:12;99979.47;;;-5.95;54.25
44138;BME280;29800;55.942;37.314;2023-12-14T11:33:44;99976.69;;;-5.93;53.63
44138;BME280;29800;55.942;37.314;2023-12-14T11:36:13;99981.28;;;-5.95;53.71
44138;BME280;29800;55.942;37.314;2023-12-14T11:38:48;99973.28;;;-5.95;53.99
44138;BME280;29800;55.942;37.314;2023-12-14T11:41:17;99979.66;;;-5.96;53.56
44138;BME280;29800;55.942;37.314;2023-12-14T11:43:46;99984.41;;;-6.00;53.71
44138;BME280;29800;55.942;37.314;2023-12-14T11:46:15;99974.16;;;-5.95;53.96
44138;BME280;29800;55.942;37.314;2023-12-14T11:48:45;99979.78;;;-5.88;53.93
44138;BME280;29800;55.942;37.314;2023-12-14T11:51:13;99978.78;;;-5.87;53.57
44138;BME280;29800;55.942;37.314;2023-12-14T11:53:46;99980.31;;;-5.94;53.74
44138;BME280;29800;55.942;37.314;2023-12-14T11:56:19;99992.28;;;-5.98;54.04
44138;BME280;29800;55.942;37.314;2023-12-14T11:58:52;99994.47;;;-5.94;54.25
44138;BME280;29800;55.942;37.314;2023-12-14T12:01:22;100006.31;;;-5.96;53.83
44138;BME280;29800;55.942;37.314;2023-12-14T12:03:56;99995.91;;;-5.99;54.49
44138;BME280;29800;55.942;37.314;2023-12-14T12:06:25;100006.84;;;-6.02;54.33
44138;BME280;29800;55.942;37.314;2023-12-14T12:08:59;100001.22;;;-6.09;54.63
44138;BME280;29800;55.942;37.314;2023-12-14T12:11:27;99998.16;;;-6.04;55.06
44138;BME280;29800;55.942;37.314;2023-12-14T12:13:58;99985.53;;;-6.02;54.80
44138;BME280;29800;55.942;37.314;2023-12-14T12:16:30;99994.47;;;-5.94;54.95
44138;BME280;29800;55.942;37.314;2023-12-14T12:19:02;100000.56;;;-5.82;54.52
44138;BME280;29800;55.942;37.314;2023-12-14T12:21:37;100004.88;;;-5.81;54.44
44138;BME280;29800;55.942;37.314;2023-12-14T12:24:07;99992.69;;;-5.83;54.51
44138;BME280;29800;55.942;37.314;2023-12-14T12:26:34;99993.94;;;-5.87;54.64
44138;BME280;29800;55.942;37.314;2023-12-14T12:29:06;100005.88;;;-5.92;54.36
44138;BME280;29800;55.942;37.314;2023-12-14T12:31:34;100012.19;;;-6.02;54.37
44138;BME280;29800;55.942;37.314;2023-12-14T12:34:06;100005.56;;;-6.18;54.51
44138;BME280;29800;55.942;37.314;2023-12-14T12:36:33;100005.13;;;-6.23;55.48
44138;BME280;29800;55.942;37.314;2023-12-14T12:39:04;100007.94;;;-6.15;55.12
44138;BME280;29800;55.942;37.314;2023-12-14T12:41:37;99995.59;;;-6.16;54.86
44138;BME280;29800;55.942;37.314;2023-12-14T12:44:08;100003.22;;;-6.01;55.19
44138;BME280;29800;55.942;37.314;2023-12-14T12:46:39;100006.97;;;-6.04;54.65
44138;BME280;29800;55.942;37.314;2023-12-14T12:49:09;100001.50;;;-6.02;55.04
44138;BME280;29800;55.942;37.314;2023-12-14T12:51:42;100004.03;;;-6.01;54.48
44138;BME280;29800;55.942;37.314;2023-12-14T12:54:13;100015.69;;;-6.02;54.89
44138;BME280;29800;55.942;37.314;2023-12-14T12:56:41;100016.94;;;-6.06;55.17
44138;BME280;29800;55.942;37.314;2023-12-14T12:59:19;100021.59;;;-5.98;54.91
44138;BME280;29800;55.942;37.314;2023-12-14T13:01:49;100024.66;;;-5.93;54.84